Terminal Aerodrome Forecast
Issued by NWS Binghamton, NY

Home | Current Version | Previous Version | Text Only | Print | Product List | Glossary On
Versions: 1 2 3 4 5 6 7 8 9 10 11 12 13 14 15
000
FTUS41 KBGM 011700
TAFAVP
TAF
KAVP 011731Z 0118/0218 03005KT P6SM BKN045
     FM020300 VRB03KT P6SM SCT035
      TEMPO 0208/0212 3SM BR BKN015
     FM021400 02005KT P6SM BKN040=

USA.gov is the U.S. government's official web portal to all federal, state and local government web resources and services.